Time;durP1;ratioP1;P1;durP2;ratioP2;P2;SDS_P1;SDS_P2;PMS_P1;PMS_P2;Temp;Humidity;BMP_temperature;BMP_pressure;BME280_temperature;BME280_humidity;BME280_pressure;Samples;Min_cycle;Max_cycle;Signal;HPM_P1;HPM_P2
2023/07/13 00:02:15;;;;;;;11.48;2.85;;;17.20;99.90;;;;;;5099756;28;20036;-60
2023/07/13 00:04:41;;;;;;;12.02;3.00;;;17.20;99.90;;;;;;5100504;28;20496;-59
2023/07/13 00:07:08;;;;;;;13.38;2.92;;;17.20;99.90;;;;;;5097300;28;20062;-59
2023/07/13 00:09:34;;;;;;;16.42;3.90;;;17.20;99.90;;;;;;5099285;28;20150;-59
2023/07/13 00:12:00;;;;;;;15.38;3.40;;;17.10;99.90;;;;;;5098193;28;20036;-59
2023/07/13 00:14:28;;;;;;;14.27;3.33;;;17.20;99.90;;;;;;5099464;28;20062;-59
2023/07/13 00:16:53;;;;;;;13.07;3.35;;;17.20;99.90;;;;;;5099256;28;20039;-59
2023/07/13 00:19:19;;;;;;;8.27;2.60;;;17.10;99.90;;;;;;5099621;28;20071;-60
2023/07/13 00:21:45;;;;;;;10.93;3.15;;;17.10;99.90;;;;;;5082348;28;20074;-59
2023/07/13 00:24:13;;;;;;;10.50;2.72;;;17.10;99.90;;;;;;5097111;28;20479;-59
2023/07/13 00:26:39;;;;;;;13.52;3.40;;;17.10;99.90;;;;;;5100549;28;20142;-59
2023/07/13 00:29:08;;;;;;;11.40;3.20;;;17.10;99.90;;;;;;5098087;28;20122;-59
2023/07/13 00:31:35;;;;;;;12.88;2.83;;;17.10;99.90;;;;;;5100708;28;20047;-59
2023/07/13 00:34:01;;;;;;;15.65;3.33;;;17.00;99.90;;;;;;5097576;28;20036;-59
2023/07/13 00:36:27;;;;;;;14.48;3.40;;;17.00;99.90;;;;;;5099287;28;20066;-58
2023/07/13 00:38:53;;;;;;;12.93;3.10;;;16.90;99.90;;;;;;5098699;28;20100;-59
2023/07/13 00:41:18;;;;;;;8.95;2.92;;;17.00;99.90;;;;;;5097905;28;20580;-60
2023/07/13 00:43:45;;;;;;;18.48;3.42;;;16.90;99.90;;;;;;5098918;28;20072;-60
2023/07/13 00:46:19;;;;;;;11.07;3.22;;;16.90;99.90;;;;;;5098019;28;20047;-59
2023/07/13 00:48:47;;;;;;;11.82;3.03;;;16.90;99.90;;;;;;5100522;28;20036;-59
2023/07/13 00:51:16;;;;;;;14.43;3.17;;;16.90;99.90;;;;;;5098959;28;20079;-59
2023/07/13 00:53:42;;;;;;;13.38;3.42;;;16.90;99.90;;;;;;5098832;28;20051;-59
2023/07/13 00:56:08;;;;;;;14.55;3.67;;;16.90;99.90;;;;;;5099766;28;20096;-59
2023/07/13 00:58:35;;;;;;;11.43;3.38;;;16.90;99.90;;;;;;5098201;28;20040;-60
2023/07/13 01:01:01;;;;;;;9.73;2.97;;;16.90;99.90;;;;;;5100242;28;20055;-59
2023/07/13 01:03:27;;;;;;;13.32;3.38;;;16.80;99.90;;;;;;5096200;28;20039;-59
2023/07/13 01:05:53;;;;;;;17.42;3.08;;;16.80;99.90;;;;;;5098989;28;20043;-59
2023/07/13 01:08:21;;;;;;;14.90;3.20;;;16.80;99.90;;;;;;5098663;28;20055;-59
2023/07/13 01:10:58;;;;;;;10.68;2.95;;;16.80;99.90;;;;;;5098410;28;20040;-60
2023/07/13 01:13:24;;;;;;;13.63;2.97;;;16.80;99.90;;;;;;5098243;28;20056;-59
2023/07/13 01:15:52;;;;;;;11.73;3.15;;;16.80;99.90;;;;;;5096493;28;20091;-60
2023/07/13 01:18:26;;;;;;;16.00;3.42;;;16.80;99.90;;;;;;5099996;28;20040;-60
2023/07/13 01:21:01;;;;;;;11.73;3.20;;;16.80;99.90;;;;;;5098143;28;20497;-59
2023/07/13 01:23:28;;;;;;;16.90;3.40;;;16.80;99.90;;;;;;5097818;28;20040;-59
2023/07/13 01:25:55;;;;;;;14.07;3.38;;;16.80;99.90;;;;;;5099584;28;20127;-59
2023/07/13 01:28:22;;;;;;;12.95;3.70;;;16.70;99.90;;;;;;5097679;28;20066;-59
2023/07/13 01:30:48;;;;;;;16.10;3.03;;;16.70;99.90;;;;;;5099685;28;20515;-59
2023/07/13 01:33:16;;;;;;;16.05;3.50;;;16.70;99.90;;;;;;5096116;28;20048;-59
2023/07/13 01:35:43;;;;;;;9.57;3.45;;;16.60;99.90;;;;;;5099926;28;20046;-59
2023/07/13 01:38:10;;;;;;;14.00;3.38;;;16.60;99.90;;;;;;5079932;28;20078;-58
2023/07/13 01:40:37;;;;;;;11.65;3.25;;;16.60;99.90;;;;;;5098671;28;20049;-59
2023/07/13 01:43:03;;;;;;;16.48;3.90;;;16.00;99.90;;;;;;5099296;28;20062;-59
2023/07/13 01:45:29;;;;;;;8.20;2.70;;;16.50;99.90;;;;;;5097809;28;20040;-59
2023/07/13 01:47:55;;;;;;;14.35;3.28;;;16.50;99.90;;;;;;5099480;28;20051;-59
2023/07/13 01:50:20;;;;;;;10.20;3.35;;;16.50;99.90;;;;;;5095808;28;20058;-60
2023/07/13 01:52:46;;;;;;;12.82;3.20;;;16.50;99.90;;;;;;5098333;28;20044;-59
2023/07/13 01:55:13;;;;;;;16.75;3.25;;;16.40;99.90;;;;;;5097825;28;20094;-59
2023/07/13 01:57:39;;;;;;;11.60;3.58;;;16.40;99.90;;;;;;5101943;28;20040;-59
2023/07/13 02:00:06;;;;;;;9.55;3.28;;;16.40;99.90;;;;;;5102850;28;20509;-59
2023/07/13 02:02:32;;;;;;;10.98;3.30;;;16.40;99.90;;;;;;5101194;28;20043;-60
2023/07/13 02:04:58;;;;;;;18.30;3.30;;;16.30;99.90;;;;;;5102870;28;20040;-59
2023/07/13 02:07:23;;;;;;;15.55;3.50;;;16.30;99.90;;;;;;5099841;28;20519;-60
2023/07/13 02:09:49;;;;;;;14.20;2.92;;;16.30;99.90;;;;;;5103008;28;20389;-59
2023/07/13 02:12:15;;;;;;;16.75;3.15;;;16.20;99.90;;;;;;5100953;28;20044;-59
2023/07/13 02:14:40;;;;;;;11.27;3.00;;;16.20;99.90;;;;;;5102379;28;20177;-60
2023/07/13 02:17:06;;;;;;;14.45;3.75;;;16.20;99.90;;;;;;5102293;28;20093;-59
2023/07/13 02:19:32;;;;;;;9.18;2.95;;;16.20;99.90;;;;;;5101364;28;20036;-59
2023/07/13 02:21:58;;;;;;;17.40;3.53;;;16.10;99.90;;;;;;5101353;28;20047;-60
2023/07/13 02:24:24;;;;;;;13.32;4.57;;;16.10;99.90;;;;;;5100685;28;20100;-59
2023/07/13 02:26:49;;;;;;;14.48;3.33;;;16.10;99.90;;;;;;5101337;28;20075;-59
2023/07/13 02:29:15;;;;;;;11.60;3.05;;;16.10;99.90;;;;;;5099191;28;20036;-59
2023/07/13 02:31:41;;;;;;;16.10;3.30;;;16.10;99.90;;;;;;5102478;28;20093;-60
2023/07/13 02:34:06;;;;;;;15.32;3.25;;;16.10;99.90;;;;;;5101337;28;20051;-59
2023/07/13 02:36:32;;;;;;;11.32;3.22;;;16.10;99.90;;;;;;5101329;28;20511;-59
2023/07/13 02:39:02;;;;;;;13.57;3.40;;;16.00;99.90;;;;;;5100786;28;20117;-59
2023/07/13 02:41:29;;;;;;;15.27;3.65;;;16.00;99.90;;;;;;5100156;28;20074;-59
2023/07/13 02:44:02;;;;;;;14.15;3.42;;;16.00;99.90;;;;;;5101063;28;20044;-59
2023/07/13 02:46:33;;;;;;;18.40;3.40;;;16.00;99.90;;;;;;5098994;28;20055;-58
2023/07/13 02:48:58;;;;;;;14.13;3.58;;;16.00;99.90;;;;;;5101990;28;20036;-60
2023/07/13 02:51:24;;;;;;;18.13;3.67;;;15.90;99.90;;;;;;5101547;28;20070;-59
2023/07/13 02:53:50;;;;;;;16.77;3.88;;;16.00;99.90;;;;;;5100499;28;20476;-59
2023/07/13 02:56:15;;;;;;;18.38;4.00;;;15.90;99.90;;;;;;5101872;28;20036;-60
2023/07/13 02:58:41;;;;;;;17.50;3.13;;;16.00;99.90;;;;;;5098876;28;20055;-59
2023/07/13 03:01:11;;;;;;;18.05;4.10;;;16.00;99.90;;;;;;5100924;28;20442;-59
2023/07/13 03:03:37;;;;;;;11.95;3.50;;;16.00;99.90;;;;;;5081736;28;20111;-59
2023/07/13 03:06:07;;;;;;;18.45;4.00;;;15.90;99.90;;;;;;5100529;28;20059;-59
2023/07/13 03:08:33;;;;;;;15.18;3.92;;;15.90;99.90;;;;;;5100155;28;20091;-61
2023/07/13 03:11:05;;;;;;;14.77;3.55;;;15.90;99.90;;;;;;5099799;28;20063;-59
2023/07/13 03:13:31;;;;;;;16.23;3.55;;;16.00;99.90;;;;;;5101684;28;20491;-58
2023/07/13 03:15:57;;;;;;;16.30;3.88;;;16.00;99.90;;;;;;5099431;28;20052;-58
2023/07/13 03:18:24;;;;;;;18.30;3.95;;;16.00;99.90;;;;;;5101960;28;20174;-59
2023/07/13 03:20:53;;;;;;;12.27;3.80;;;16.00;99.90;;;;;;5099897;28;20644;-58
2023/07/13 03:23:20;;;;;;;13.65;3.95;;;16.00;99.90;;;;;;5082840;28;20048;-59
2023/07/13 03:25:46;;;;;;;10.88;3.63;;;16.00;99.90;;;;;;5101201;28;20098;-58
2023/07/13 03:28:12;;;;;;;17.50;3.90;;;16.00;99.90;;;;;;5099453;28;20044;-59
2023/07/13 03:30:38;;;;;;;17.98;4.55;;;16.00;99.90;;;;;;5101335;28;20040;-59
2023/07/13 03:33:04;;;;;;;14.90;4.20;;;16.00;99.90;;;;;;5099213;28;20058;-59
2023/07/13 03:35:30;;;;;;;15.52;3.83;;;16.00;99.90;;;;;;5101722;28;20093;-59
2023/07/13 03:37:56;;;;;;;11.38;4.15;;;15.90;99.90;;;;;;5098115;28;20035;-59
2023/07/13 03:40:23;;;;;;;13.13;4.43;;;15.90;99.90;;;;;;5100809;28;20048;-61
2023/07/13 03:42:48;;;;;;;13.82;4.13;;;15.90;99.90;;;;;;5100569;28;20040;-59
2023/07/13 03:45:14;;;;;;;17.00;4.60;;;15.60;99.90;;;;;;5099571;28;20051;-59
2023/07/13 03:47:39;;;;;;;13.50;4.10;;;15.90;99.90;;;;;;5099623;28;20046;-58
2023/07/13 03:50:06;;;;;;;12.95;3.97;;;15.90;99.90;;;;;;5097738;28;20032;-58
2023/07/13 03:52:31;;;;;;;16.67;4.15;;;15.90;99.90;;;;;;5099905;28;20040;-58
2023/07/13 03:54:57;;;;;;;16.73;4.68;;;15.80;99.90;;;;;;5099123;28;20527;-58
2023/07/13 03:57:23;;;;;;;18.17;4.43;;;15.80;99.90;;;;;;5099598;28;20471;-59
2023/07/13 03:59:48;;;;;;;15.88;4.32;;;15.80;99.90;;;;;;5098809;28;20036;-58
2023/07/13 04:02:14;;;;;;;14.80;4.70;;;15.80;99.90;;;;;;5099408;28;20036;-59
2023/07/13 04:04:40;;;;;;;15.68;3.65;;;15.80;99.90;;;;;;5100598;28;20073;-59
2023/07/13 04:07:08;;;;;;;16.30;4.28;;;15.80;99.90;;;;;;5098646;28;20040;-59
2023/07/13 04:09:34;;;;;;;15.07;3.70;;;15.80;99.90;;;;;;5082667;28;20051;-59
2023/07/13 04:12:00;;;;;;;12.63;3.95;;;15.70;99.90;;;;;;5098211;28;20082;-59
2023/07/13 04:14:26;;;;;;;14.32;3.92;;;15.70;99.90;;;;;;5100733;28;20060;-59
2023/07/13 04:16:51;;;;;;;19.75;4.82;;;15.70;99.90;;;;;;5099540;28;20044;-58
2023/07/13 04:19:17;;;;;;;14.63;4.65;;;15.70;99.90;;;;;;5099083;28;20032;-59
2023/07/13 04:21:43;;;;;;;15.82;4.68;;;15.70;99.90;;;;;;5100231;28;20040;-59
2023/07/13 04:24:09;;;;;;;12.70;4.15;;;15.70;99.90;;;;;;5097250;28;20403;-59
2023/07/13 04:26:38;;;;;;;13.10;4.60;;;15.70;99.90;;;;;;5099045;28;20081;-59
2023/07/13 04:29:04;;;;;;;19.08;4.60;;;15.70;99.90;;;;;;5098499;28;20043;-59
2023/07/13 04:31:31;;;;;;;20.35;5.10;;;15.70;99.90;;;;;;5100599;28;20097;-60
2023/07/13 04:33:57;;;;;;;12.75;4.45;;;15.60;99.90;;;;;;5099027;28;20381;-59
2023/07/13 04:36:22;;;;;;;12.75;4.28;;;15.70;99.90;;;;;;5099276;28;20116;-59
2023/07/13 04:38:48;;;;;;;12.10;4.65;;;15.70;99.90;;;;;;5100024;28;20081;-59
2023/07/13 04:41:15;;;;;;;17.17;4.40;;;15.70;99.90;;;;;;5096449;28;20116;-59
2023/07/13 04:43:41;;;;;;;17.63;4.43;;;15.70;99.90;;;;;;5100317;28;20063;-59
2023/07/13 04:46:10;;;;;;;13.10;4.18;;;15.70;99.90;;;;;;5096624;28;20044;-59
2023/07/13 04:48:37;;;;;;;12.95;4.07;;;15.70;99.90;;;;;;5100518;28;20506;-60
2023/07/13 04:51:03;;;;;;;13.35;3.85;;;15.70;99.90;;;;;;5098694;28;20399;-58
2023/07/13 04:53:30;;;;;;;15.38;3.88;;;15.70;99.90;;;;;;5097743;28;20032;-59
2023/07/13 04:55:56;;;;;;;15.50;3.90;;;15.30;99.90;;;;;;5099709;28;20122;-59
2023/07/13 04:58:22;;;;;;;11.77;3.60;;;15.80;99.90;;;;;;5098242;28;20099;-59
2023/07/13 05:00:48;;;;;;;14.43;4.72;;;15.80;99.90;;;;;;5100003;28;20044;-59
2023/07/13 05:03:14;;;;;;;20.20;4.20;;;15.90;99.90;;;;;;5079399;28;20099;-59
2023/07/13 05:05:40;;;;;;;16.20;3.83;;;15.80;99.90;;;;;;5082082;28;20070;-59
2023/07/13 05:08:07;;;;;;;13.57;3.92;;;15.90;99.90;;;;;;5080519;28;20476;-59
2023/07/13 05:10:33;;;;;;;17.23;4.53;;;15.90;99.90;;;;;;5098845;28;20044;-60
2023/07/13 05:12:58;;;;;;;15.05;4.63;;;15.90;99.90;;;;;;5099496;28;20112;-59
2023/07/13 05:15:25;;;;;;;14.70;4.07;;;15.90;99.90;;;;;;5096556;28;20056;-59
2023/07/13 05:17:51;;;;;;;13.48;4.15;;;15.90;99.90;;;;;;5081732;28;20040;-59
2023/07/13 05:20:18;;;;;;;12.77;4.22;;;15.90;99.90;;;;;;5097596;28;20051;-59
2023/07/13 05:22:46;;;;;;;13.50;4.22;;;16.00;99.90;;;;;;5099883;28;20044;-59
2023/07/13 05:25:13;;;;;;;15.82;4.70;;;16.00;99.90;;;;;;5098368;28;20596;-59
2023/07/13 05:27:39;;;;;;;11.18;3.83;;;16.00;99.90;;;;;;5099008;28;20048;-57
2023/07/13 05:30:05;;;;;;;12.18;4.38;;;16.10;99.90;;;;;;5098059;28;20040;-58
2023/07/13 05:32:31;;;;;;;15.77;4.40;;;16.10;99.90;;;;;;5100462;28;20526;-59
2023/07/13 05:34:56;;;;;;;14.20;4.00;;;16.10;99.90;;;;;;5103638;28;20040;-59
2023/07/13 05:37:22;;;;;;;13.80;4.10;;;16.10;99.90;;;;;;5099899;28;20123;-59
2023/07/13 05:39:48;;;;;;;15.43;4.40;;;16.20;99.90;;;;;;5103647;28;20040;-59
2023/07/13 05:42:14;;;;;;;11.10;4.13;;;16.20;99.90;;;;;;5101989;28;20108;-58
2023/07/13 05:44:39;;;;;;;11.35;3.90;;;16.30;99.90;;;;;;5101789;28;20040;-60
2023/07/13 05:47:06;;;;;;;13.45;4.43;;;16.30;99.90;;;;;;5103048;28;20096;-57
2023/07/13 05:49:31;;;;;;;18.23;4.40;;;16.40;99.90;;;;;;5100337;28;20438;-60
2023/07/13 05:51:57;;;;;;;12.80;4.10;;;16.40;99.90;;;;;;5101683;28;20051;-59
2023/07/13 05:54:23;;;;;;;15.10;4.47;;;16.40;99.90;;;;;;5099996;28;20032;-60
2023/07/13 05:56:48;;;;;;;19.88;4.00;;;16.50;99.90;;;;;;5102339;28;20040;-60
2023/07/13 05:59:14;;;;;;;21.92;4.72;;;16.60;99.90;;;;;;5101413;28;20044;-59
2023/07/13 06:01:41;;;;;;;13.48;4.07;;;16.60;99.90;;;;;;5084874;28;20037;-59
2023/07/13 06:04:06;;;;;;;16.45;4.20;;;16.70;99.90;;;;;;5102441;28;20036;-59
2023/07/13 06:06:33;;;;;;;14.18;4.40;;;16.80;99.90;;;;;;5101591;28;20093;-59
2023/07/13 06:08:58;;;;;;;14.23;4.53;;;16.90;99.90;;;;;;5103021;28;20078;-60
2023/07/13 06:11:27;;;;;;;16.52;4.70;;;17.00;99.90;;;;;;5100631;28;20095;-59
2023/07/13 06:13:53;;;;;;;13.55;4.57;;;17.10;99.90;;;;;;5103042;28;20048;-59
2023/07/13 06:16:18;;;;;;;11.80;3.97;;;17.20;99.90;;;;;;5099444;28;20048;-59
2023/07/13 06:18:44;;;;;;;18.30;4.40;;;17.30;99.90;;;;;;5102868;28;20364;-59
2023/07/13 06:21:14;;;;;;;13.18;4.13;;;17.40;99.90;;;;;;5100623;28;20403;-59
2023/07/13 06:23:39;;;;;;;12.07;4.50;;;17.40;99.90;;;;;;5101372;28;20044;-59
2023/07/13 06:26:06;;;;;;;17.58;4.28;;;17.40;99.90;;;;;;5101226;28;20077;-60
2023/07/13 06:28:33;;;;;;;15.93;3.97;;;17.50;99.90;;;;;;5099410;28;20048;-59
2023/07/13 06:31:00;;;;;;;15.57;4.22;;;17.50;99.90;;;;;;5084520;28;20052;-59
2023/07/13 06:33:26;;;;;;;13.05;4.00;;;17.50;99.90;;;;;;5100445;28;20047;-59
2023/07/13 06:35:52;;;;;;;15.20;4.32;;;17.60;99.90;;;;;;5100937;28;20404;-59
2023/07/13 06:38:17;;;;;;;17.83;4.85;;;17.60;99.90;;;;;;5100351;28;20062;-59
2023/07/13 06:40:43;;;;;;;18.63;4.28;;;17.60;99.90;;;;;;5100927;28;21022;-60
2023/07/13 06:43:09;;;;;;;12.05;4.32;;;17.60;99.90;;;;;;5100682;28;20061;-58
2023/07/13 06:45:47;;;;;;;14.18;4.20;;;17.70;99.90;;;;;;5100421;28;20072;-60
2023/07/13 06:48:13;;;;;;;15.55;4.60;;;17.60;99.90;;;;;;5102275;28;20048;-59
2023/07/13 06:50:39;;;;;;;18.13;5.03;;;17.60;99.90;;;;;;5065273;28;20048;-59
2023/07/13 06:53:05;;;;;;;16.33;4.47;;;17.60;99.90;;;;;;5083790;28;20040;-59
2023/07/13 06:55:30;;;;;;;13.85;4.13;;;17.60;99.90;;;;;;5100082;28;20110;-59
2023/07/13 06:57:57;;;;;;;12.80;4.07;;;17.60;99.90;;;;;;5099300;28;20128;-59
2023/07/13 07:00:23;;;;;;;19.98;4.50;;;17.60;99.90;;;;;;5101758;28;20048;-59
2023/07/13 07:02:48;;;;;;;14.38;4.80;;;17.70;99.90;;;;;;5099868;28;20075;-59
2023/07/13 07:05:14;;;;;;;17.63;4.85;;;17.60;99.90;;;;;;5102174;28;20055;-59
2023/07/13 07:07:40;;;;;;;12.02;4.20;;;17.70;99.90;;;;;;5099844;28;20396;-58
2023/07/13 07:10:06;;;;;;;16.75;5.03;;;17.70;99.90;;;;;;5101921;28;20051;-59
2023/07/13 07:12:31;;;;;;;19.83;5.10;;;17.70;99.90;;;;;;5099515;28;20499;-59
2023/07/13 07:14:57;;;;;;;17.85;5.30;;;17.80;99.90;;;;;;5099139;28;20111;-60
2023/07/13 07:17:23;;;;;;;17.73;5.50;;;17.80;99.90;;;;;;5101276;28;20458;-59
2023/07/13 07:19:48;;;;;;;16.30;5.00;;;17.90;99.90;;;;;;5099762;28;20070;-59
2023/07/13 07:22:14;;;;;;;16.17;5.03;;;17.90;99.90;;;;;;5083485;28;20048;-59
2023/07/13 07:24:40;;;;;;;20.88;6.05;;;17.90;99.90;;;;;;5081070;28;20047;-59
2023/07/13 07:27:06;;;;;;;20.45;5.38;;;18.00;99.90;;;;;;5102100;28;20044;-59
2023/07/13 07:29:32;;;;;;;19.10;5.80;;;18.10;99.90;;;;;;5098759;28;20096;-58
2023/07/13 07:31:59;;;;;;;18.50;5.60;;;18.10;99.90;;;;;;5098979;28;20080;-59
2023/07/13 07:34:25;;;;;;;18.50;5.47;;;18.20;99.90;;;;;;5101189;28;20083;-59
2023/07/13 07:36:51;;;;;;;20.65;5.85;;;18.70;99.90;;;;;;5099379;28;20059;-60
2023/07/13 07:39:17;;;;;;;21.75;6.32;;;18.40;99.90;;;;;;5083313;28;20040;-59
2023/07/13 07:41:43;;;;;;;20.63;6.15;;;18.50;99.90;;;;;;5098775;28;20484;-59
2023/07/13 07:44:09;;;;;;;17.48;5.88;;;18.50;99.90;;;;;;5101563;28;20036;-59
2023/07/13 07:46:35;;;;;;;17.40;5.70;;;18.60;99.90;;;;;;5099612;28;20048;-58
2023/07/13 07:49:01;;;;;;;16.13;5.78;;;18.80;99.90;;;;;;5100312;28;20036;-59
2023/07/13 07:51:27;;;;;;;20.35;6.15;;;19.10;99.90;;;;;;5099364;28;20036;-58
2023/07/13 07:53:53;;;;;;;15.25;5.13;;;19.50;99.90;;;;;;5098444;28;20174;-59
2023/07/13 07:56:19;;;;;;;16.75;5.85;;;19.70;99.90;;;;;;5100839;28;20052;-59
2023/07/13 07:58:44;;;;;;;19.73;5.60;;;19.90;99.90;;;;;;5098723;28;20063;-59
2023/07/13 08:01:10;;;;;;;13.90;4.97;;;20.10;99.90;;;;;;5101153;28;20550;-60
2023/07/13 08:03:36;;;;;;;15.98;5.43;;;20.30;99.90;;;;;;5099047;28;20131;-58
2023/07/13 08:06:02;;;;;;;20.15;5.60;;;20.30;99.90;;;;;;5098938;28;20040;-59
2023/07/13 08:08:27;;;;;;;17.63;5.55;;;20.20;99.90;;;;;;5100489;28;20123;-58
2023/07/13 08:10:53;;;;;;;16.52;5.50;;;20.10;99.90;;;;;;5098651;28;20081;-59
2023/07/13 08:13:19;;;;;;;19.17;5.63;;;20.10;99.90;;;;;;5100380;28;20115;-59
2023/07/13 08:15:46;;;;;;;18.27;5.28;;;20.10;99.90;;;;;;5097060;28;20294;-58
2023/07/13 08:18:12;;;;;;;15.23;4.72;;;20.00;99.90;;;;;;5099606;28;20040;-59
2023/07/13 08:20:40;;;;;;;15.98;5.10;;;20.00;99.90;;;;;;5098747;28;20062;-58
2023/07/13 08:23:09;;;;;;;15.32;5.25;;;20.00;99.90;;;;;;5100251;28;20040;-59
2023/07/13 08:25:35;;;;;;;18.00;5.07;;;19.90;99.90;;;;;;5098645;28;20388;-59
2023/07/13 08:28:01;;;;;;;13.75;4.63;;;19.70;99.90;;;;;;5098778;28;20036;-59
2023/07/13 08:30:27;;;;;;;13.65;5.03;;;19.60;99.90;;;;;;5100088;28;20044;-58
2023/07/13 08:32:53;;;;;;;13.52;4.45;;;19.50;99.90;;;;;;5098197;28;20043;-59
2023/07/13 08:35:19;;;;;;;14.25;4.60;;;19.50;99.90;;;;;;5100583;28;20046;-59
2023/07/13 08:37:45;;;;;;;13.90;4.72;;;19.40;99.90;;;;;;5097164;28;20119;-58
2023/07/13 08:40:12;;;;;;;15.45;3.67;;;19.40;99.90;;;;;;5099836;28;20047;-57
2023/07/13 08:42:55;;;;;;;28.70;4.68;;;19.20;99.90;;;;;;5098511;28;20453;-59
2023/07/13 08:45:28;;;;;;;20.00;4.13;;;18.70;99.90;;;;;;5098411;28;20063;-60
2023/07/13 08:48:04;;;;;;;30.50;4.07;;;17.90;99.90;;;;;;5100276;28;20051;-56
2023/07/13 08:50:35;;;;;;;13.32;4.03;;;17.00;99.90;;;;;;5098065;28;20048;-56
2023/07/13 08:53:04;;;;;;;8.23;3.15;;;16.20;99.90;;;;;;5081563;28;20059;-57
2023/07/13 08:55:33;;;;;;;11.18;3.92;;;15.60;99.90;;;;;;5099389;28;20044;-57
2023/07/13 08:58:11;;;;;;;9.75;4.60;;;15.20;99.90;;;;;;5098466;28;20048;-59
2023/07/13 09:01:05;;;;;;;7.93;3.53;;;15.10;99.90;;;;;;5098715;28;20048;-58
2023/07/13 09:03:38;;;;;;;7.82;3.90;;;15.10;99.90;;;;;;5087388;28;20077;-58
2023/07/13 09:06:04;;;;;;;10.60;4.07;;;15.10;99.90;;;;;;5100174;28;20056;-59
2023/07/13 09:09:03;;;;;;;9.27;3.80;;;15.00;99.90;;;;;;5103768;28;20511;-58
2023/07/13 09:11:51;;;;;;;7.47;3.80;;;14.90;99.90;;;;;;5086382;28;20056;-59
2023/07/13 09:14:31;;;;;;;6.43;3.45;;;14.90;99.90;;;;;;5102668;28;20074;-61
2023/07/13 09:16:59;;;;;;;6.47;3.33;;;15.00;99.90;;;;;;5103545;28;20044;-59
2023/07/13 09:19:30;;;;;;;6.60;3.33;;;15.00;99.90;;;;;;5102221;28;20054;-62
2023/07/13 09:21:57;;;;;;;6.15;3.22;;;15.00;99.90;;;;;;5103883;28;20044;-63
2023/07/13 09:24:38;;;;;;;8.30;3.45;;;15.00;99.90;;;;;;5101777;28;20078;-61
2023/07/13 09:27:24;;;;;;;7.38;3.42;;;15.00;99.90;;;;;;5102886;28;20074;-60
2023/07/13 09:29:58;;;;;;;7.85;3.70;;;15.10;99.90;;;;;;5102139;28;20040;-59
2023/07/13 09:32:26;;;;;;;11.40;4.35;;;15.10;99.90;;;;;;5100447;28;20092;-63
2023/07/13 09:34:54;;;;;;;11.65;4.85;;;15.20;99.90;;;;;;5102298;28;20060;-61
2023/07/13 09:37:22;;;;;;;11.85;5.70;;;15.20;99.90;;;;;;5083225;28;20054;-61
2023/07/13 09:39:51;;;;;;;11.10;5.30;;;15.30;99.90;;;;;;5103789;28;20040;-62
2023/07/13 09:42:22;;;;;;;11.85;5.20;;;15.40;99.90;;;;;;5102453;28;20036;-62
2023/07/13 09:44:57;;;;;;;10.40;5.43;;;15.50;99.90;;;;;;5101131;28;20059;-62
2023/07/13 09:47:29;;;;;;;15.00;5.93;;;15.50;99.90;;;;;;5103476;28;20115;-60
2023/07/13 09:50:00;;;;;;;13.48;6.57;;;15.60;99.90;;;;;;5101467;28;20047;-59
2023/07/13 09:52:27;;;;;;;12.82;7.28;;;15.70;99.90;;;;;;5103596;28;20046;-57
2023/07/13 09:54:58;;;;;;;14.32;8.15;;;15.90;99.90;;;;;;5101548;28;20492;-55
2023/07/13 09:57:27;;;;;;;18.63;9.70;;;16.10;99.90;;;;;;5102868;28;20044;-57
2023/07/13 09:59:56;;;;;;;18.05;10.88;;;16.50;99.90;;;;;;5102821;28;20040;-56
2023/07/13 10:02:33;;;;;;;16.10;11.77;;;16.80;99.90;;;;;;5101221;28;20036;-58
2023/07/13 10:05:00;;;;;;;18.77;11.63;;;17.20;99.90;;;;;;5103255;28;20094;-59
2023/07/13 10:07:26;;;;;;;16.70;11.40;;;17.40;99.90;;;;;;5100944;28;20099;-60
2023/07/13 10:09:54;;;;;;;20.02;11.18;;;17.60;99.90;;;;;;5103270;28;20066;-60
2023/07/13 10:12:20;;;;;;;15.95;10.63;;;17.80;99.90;;;;;;5100337;28;20067;-59
2023/07/13 10:14:46;;;;;;;20.08;11.73;;;18.00;99.90;;;;;;5100356;28;20051;-60
2023/07/13 10:17:14;;;;;;;15.82;11.40;;;18.10;99.90;;;;;;5102201;28;20044;-59
2023/07/13 10:19:43;;;;;;;17.05;10.75;;;18.30;99.90;;;;;;5100996;28;20054;-60
2023/07/13 10:22:27;;;;;;;15.57;8.70;;;18.30;99.90;;;;;;5101673;28;20124;-60
2023/07/13 10:24:54;;;;;;;15.35;6.78;;;18.30;99.90;;;;;;5100918;28;20514;-60
2023/07/13 10:27:33;;;;;;;10.13;6.53;;;18.30;99.90;;;;;;5101331;28;20040;-61
2023/07/13 10:30:02;;;;;;;12.27;7.10;;;18.20;99.90;;;;;;5100976;28;20050;-60
2023/07/13 10:32:28;;;;;;;11.98;7.20;;;18.00;99.90;;;;;;5100559;28;20094;-61
2023/07/13 10:34:56;;;;;;;13.27;7.32;;;18.00;99.90;;;;;;5101371;28;20044;-60
2023/07/13 10:37:45;;;;;;;11.70;7.75;;;17.90;99.90;;;;;;5100193;28;20048;-61
2023/07/13 10:40:22;;;;;;;14.23;8.48;;;17.80;99.90;;;;;;5100614;28;20048;-60
2023/07/13 10:42:51;;;;;;;12.48;6.57;;;17.70;99.90;;;;;;5100991;28;20498;-58
2023/07/13 10:45:22;;;;;;;7.75;3.97;;;17.60;99.90;;;;;;5100482;28;20250;-58
2023/07/13 10:47:52;;;;;;;8.27;4.07;;;17.40;99.90;;;;;;5102223;28;20032;-58
2023/07/13 10:50:24;;;;;;;8.68;3.60;;;17.30;99.90;;;;;;5099984;28;20092;-58
2023/07/13 10:53:31;;;;;;;4.60;3.25;;;17.20;99.90;;;;;;5100986;28;20052;-59
2023/07/13 10:56:05;;;;;;;6.30;3.30;;;17.10;99.90;;;;;;5099778;28;20044;-59
2023/07/13 10:58:37;;;;;;;5.72;3.10;;;17.00;99.90;;;;;;5100264;28;20048;-59
2023/07/13 11:01:13;;;;;;;4.75;3.08;;;17.00;99.90;;;;;;5102407;28;20076;-59
2023/07/13 11:04:02;;;;;;;6.10;3.60;;;17.10;99.90;;;;;;5100555;28;20052;-59
2023/07/13 11:06:29;;;;;;;6.72;3.20;;;17.20;99.90;;;;;;5100246;28;20066;-60
2023/07/13 11:08:57;;;;;;;4.85;3.28;;;17.30;99.90;;;;;;5101970;28;20118;-60
2023/07/13 11:11:33;;;;;;;6.18;3.90;;;17.50;99.90;;;;;;5099466;28;20071;-61
2023/07/13 11:14:04;;;;;;;8.80;4.00;;;17.70;99.90;;;;;;5102050;28;20094;-61
2023/07/13 11:16:43;;;;;;;9.93;4.43;;;17.90;99.90;;;;;;5099288;28;20458;-61
2023/07/13 11:19:27;;;;;;;9.52;4.20;;;18.10;99.90;;;;;;5100261;28;20123;-63
2023/07/13 11:22:01;;;;;;;9.88;4.85;;;18.30;99.90;;;;;;5101670;28;20036;-62
2023/07/13 11:24:47;;;;;;;9.25;4.70;;;18.40;99.90;;;;;;5099332;28;20070;-62
2023/07/13 11:27:45;;;;;;;11.43;4.63;;;18.50;99.90;;;;;;5101598;28;20072;-62
2023/07/13 11:30:28;;;;;;;8.18;4.80;;;18.70;99.90;;;;;;5099071;28;20036;-61
2023/07/13 11:33:15;;;;;;;8.07;4.32;;;18.70;99.90;;;;;;5099348;28;20052;-61
2023/07/13 11:35:51;;;;;;;7.50;5.45;;;18.70;99.90;;;;;;5101558;28;20581;-62
2023/07/13 11:38:42;;;;;;;11.45;5.47;;;18.90;99.90;;;;;;5100729;28;20044;-61
2023/07/13 11:41:18;;;;;;;7.22;4.95;;;19.00;99.90;;;;;;5097009;28;20178;-62
2023/07/13 11:43:45;;;;;;;11.40;4.30;;;19.10;99.90;;;;;;5100315;28;20519;-62
2023/07/13 11:46:23;;;;;;;7.15;4.00;;;19.30;99.90;;;;;;5099061;28;20095;-63
2023/07/13 11:48:53;;;;;;;7.30;2.60;;;19.40;99.90;;;;;;5100486;28;20043;-63
2023/07/13 11:51:35;;;;;;;8.43;2.70;;;19.60;99.90;;;;;;5100733;28;20463;-62
2023/07/13 11:54:33;;;;;;;6.30;2.40;;;19.60;99.90;;;;;;5097889;28;20575;-63
2023/07/13 11:57:18;;;;;;;6.80;2.50;;;19.60;99.90;;;;;;5101398;28;20048;-62
2023/07/13 11:59:44;;;;;;;8.05;2.80;;;19.70;99.90;;;;;;5082476;28;20101;-61
2023/07/13 12:02:25;;;;;;;9.75;2.58;;;19.80;99.90;;;;;;5099195;28;20501;-61
2023/07/13 12:04:52;;;;;;;8.52;2.95;;;19.90;99.90;;;;;;5100997;28;20043;-61
2023/07/13 12:07:19;;;;;;;10.50;2.70;;;20.00;99.90;;;;;;5098607;28;20063;-61
2023/07/13 12:09:45;;;;;;;5.20;2.70;;;20.10;99.90;;;;;;5101147;28;20048;-61
2023/07/13 12:12:18;;;;;;;9.32;2.45;;;20.10;99.90;;;;;;5098889;28;20047;-61
2023/07/13 12:14:44;;;;;;;6.47;2.20;;;20.20;99.90;;;;;;5099272;28;20057;-60
2023/07/13 12:17:18;;;;;;;4.68;2.22;;;20.30;99.90;;;;;;5100326;28;20051;-60
2023/07/13 12:19:44;;;;;;;8.50;2.20;;;20.30;99.90;;;;;;5098719;28;20089;-60
2023/07/13 12:22:13;;;;;;;5.10;2.17;;;20.40;99.90;;;;;;5099511;28;20071;-60
2023/07/13 12:24:40;;;;;;;7.10;2.30;;;20.50;99.90;;;;;;5098350;28;20044;-60
2023/07/13 12:27:18;;;;;;;5.45;2.10;;;20.70;99.90;;;;;;5100629;28;20092;-59
2023/07/13 12:30:00;;;;;;;4.00;1.70;;;20.90;99.90;;;;;;5099903;28;20072;-59
2023/07/13 12:32:27;;;;;;;6.43;1.95;;;21.10;99.90;;;;;;5098274;28;20095;-59
2023/07/13 12:34:56;;;;;;;4.00;1.90;;;21.20;99.90;;;;;;5100342;28;20039;-59
2023/07/13 12:37:23;;;;;;;4.55;1.85;;;21.40;99.90;;;;;;5096592;28;20048;-60
2023/07/13 12:39:50;;;;;;;5.60;1.92;;;21.60;99.90;;;;;;5100084;28;20039;-60
2023/07/13 12:42:28;;;;;;;7.65;2.10;;;21.70;99.90;;;;;;5097437;28;20066;-59
2023/07/13 12:44:57;;;;;;;7.05;2.50;;;21.80;99.90;;;;;;5098762;28;20079;-59
2023/07/13 12:47:23;;;;;;;5.95;2.17;;;21.90;99.90;;;;;;5098751;28;20048;-59